Terminal Aerodrome Forecast
Issued by NWS Cleveland, OH

Home | Current Version | Previous Version | Graphics & Text | Print | Product List | Glossary On
Versions: 1 2 3 4 5 6 7 8 9 10 11 12 13 14 15 16 17 18 19
787
FTUS41 KCLE 212322
TAFERI
TAF
KERI 212322Z 2200/2224 29006KT P6SM FEW070
     FM220400 18004KT P6SM BKN250
     FM221300 15006KT 6SM -SHRA VCTS OVC050CB
     FM221700 14007KT P6SM SHRA VCTS OVC090CB=

USA.gov is the U.S. government's official web portal to all federal, state and local government web resources and services.